Terminal Aerodrome Forecast
Issued by NWS

Home | Current Version | Previous Version | Text Only | Print | Product List | Glossary On
Versions: 1 2 3 4 5 6 7 8 9 10 11 12 13 14
000
FTUS45 KRIW 071729
TAFBPI
TAF
KBPI 071729Z 0718/0818 VRB10G20KT P6SM VCTS BKN080CB
     FM080200 VRB06KT P6SM VCSH BKN050
     FM080600 35006KT P6SM SCT050 BKN100
     FM081700 15008KT P6SM VCSH SCT040 BKN090=

USA.gov is the U.S. government's official web portal to all federal, state and local government web resources and services.